createdAt,value
2018-12-30T00:00:21.665Z,56.79
2018-12-30T00:01:21.660Z,56.98
2018-12-30T00:02:21.653Z,55.65
2018-12-30T00:03:21.646Z,54.41
2018-12-30T00:04:21.642Z,52.98
2018-12-30T00:05:21.635Z,51.65
2018-12-30T00:06:21.628Z,50.99
2018-12-30T00:07:21.622Z,50.51
2018-12-30T00:08:21.616Z,52.61
2018-12-30T00:09:21.610Z,52.80
2018-12-30T00:10:21.602Z,52.13
2018-12-30T00:11:21.598Z,51.27
2018-12-30T00:12:21.591Z,51.27
2018-12-30T00:13:21.585Z,51.65
2018-12-30T00:14:21.578Z,51.56
2018-12-30T00:15:21.574Z,53.17
2018-12-30T00:16:21.570Z,53.46
2018-12-30T00:17:21.562Z,53.65
2018-12-30T00:18:21.554Z,53.75
2018-12-30T00:19:21.548Z,54.22
2018-12-30T00:20:21.542Z,55.08
2018-12-30T00:21:21.537Z,55.08
2018-12-30T00:22:21.529Z,55.83
2018-12-30T00:23:21.527Z,55.65
2018-12-30T00:24:21.521Z,57.74
2018-12-30T00:25:21.512Z,58.22
2018-12-30T00:26:21.504Z,58.79
2018-12-30T00:27:21.499Z,57.65
2018-12-30T00:28:21.491Z,57.65
2018-12-30T00:29:21.485Z,57.84
2018-12-30T00:30:21.480Z,57.55
2018-12-30T00:31:21.475Z,57.74
2018-12-30T00:32:21.468Z,57.07
2018-12-30T00:33:21.462Z,57.93
2018-12-30T00:34:21.456Z,58.03
2018-12-30T00:35:21.449Z,58.12
2018-12-30T00:36:21.444Z,58.69
2018-12-30T00:37:21.437Z,58.69
2018-12-30T00:38:21.430Z,57.84
2018-12-30T00:39:21.424Z,57.45
2018-12-30T00:40:21.419Z,56.98
2018-12-30T00:41:21.412Z,56.88
2018-12-30T00:42:21.406Z,55.74
2018-12-30T00:43:21.404Z,55.74
2018-12-30T00:44:21.394Z,55.65
2018-12-30T00:45:21.388Z,56.98
2018-12-30T00:46:21.380Z,57.36
2018-12-30T00:47:21.375Z,56.70
2018-12-30T00:48:21.368Z,56.51
2018-12-30T00:49:21.362Z,56.79
2018-12-30T00:50:21.355Z,58.98
2018-12-30T00:51:21.352Z,59.36
2018-12-30T00:52:21.343Z,59.64
2018-12-30T00:53:21.338Z,60.02
2018-12-30T00:54:21.331Z,59.64
2018-12-30T00:55:21.324Z,60.60
2018-12-30T00:56:21.318Z,60.31
2018-12-30T00:57:21.313Z,61.93
2018-12-30T00:58:21.308Z,62.12
2018-12-30T00:59:21.305Z,61.93
2018-12-30T01:00:21.295Z,62.12
2018-12-30T01:01:21.289Z,63.26
2018-12-30T01:02:21.283Z,63.54
2018-12-30T01:03:21.277Z,65.06
2018-12-30T01:04:21.271Z,66.49
2018-12-30T01:05:21.266Z,68.01
2018-12-30T01:06:21.259Z,69.54
2018-12-30T01:07:21.251Z,68.77
2018-12-30T01:08:21.245Z,68.11
2018-12-30T01:09:21.240Z,68.40
2018-12-30T01:10:21.234Z,67.16
2018-12-30T01:11:21.227Z,66.59
2018-12-30T01:12:21.220Z,67.54
2018-12-30T01:13:21.214Z,68.30
2018-12-30T01:14:21.208Z,70.77
2018-12-30T01:15:21.201Z,69.35
2018-12-30T01:16:21.196Z,69.35
2018-12-30T01:17:21.190Z,69.44
2018-12-30T01:18:21.183Z,69.73
2018-12-30T01:19:21.177Z,70.30
2018-12-30T01:20:21.171Z,68.87
2018-12-30T01:21:24.995Z,68.49
2018-12-30T01:22:21.158Z,68.30
2018-12-30T01:23:21.151Z,67.98
2018-12-30T01:24:21.146Z,68.40
2018-12-30T01:25:21.139Z,68.40
2018-12-30T01:26:21.135Z,67.54
2018-12-30T01:27:21.132Z,67.35
2018-12-30T01:28:21.123Z,67.82
2018-12-30T01:29:21.115Z,67.92
2018-12-30T01:30:21.109Z,66.87
2018-12-30T01:31:21.103Z,65.54
2018-12-30T01:32:21.098Z,65.35
2018-12-30T01:33:21.092Z,64.87
2018-12-30T01:34:21.085Z,62.88
2018-12-30T01:35:21.079Z,62.21
2018-12-30T01:36:21.071Z,61.83
2018-12-30T01:37:21.065Z,60.69
2018-12-30T01:38:21.061Z,59.99
2018-12-30T01:39:21.053Z,59.99
2018-12-30T01:40:21.047Z,59.80
2018-12-30T01:41:21.040Z,59.74
2018-12-30T01:42:21.033Z,59.52
2018-12-30T01:43:21.028Z,60.18
2018-12-30T01:44:21.022Z,59.71
2018-12-30T01:45:21.017Z,60.75
2018-12-30T01:46:21.009Z,61.55
2018-12-30T01:47:21.002Z,61.16
2018-12-30T01:48:20.996Z,60.75
2018-12-30T01:49:20.989Z,60.60
2018-12-30T01:50:20.984Z,60.50
2018-12-30T01:51:20.978Z,60.02
2018-12-30T01:52:20.972Z,58.79
2018-12-30T01:53:20.965Z,57.81
2018-12-30T01:54:20.959Z,57.04
2018-12-30T01:55:20.952Z,56.19
2018-12-30T01:56:20.947Z,55.52
2018-12-30T01:57:20.940Z,54.57
2018-12-30T01:58:20.933Z,54.38
2018-12-30T01:59:20.927Z,53.43
2018-12-30T02:00:20.922Z,52.67
2018-12-30T02:01:20.918Z,51.72
2018-12-30T02:02:20.909Z,51.53
2018-12-30T02:03:20.904Z,49.91
2018-12-30T02:04:20.897Z,49.15
2018-12-30T02:05:20.893Z,48.21
2018-12-30T02:06:20.884Z,47.82
2018-12-30T02:07:20.878Z,47.25
2018-12-30T02:08:20.872Z,46.78
2018-12-30T02:09:20.866Z,46.59
2018-12-30T02:10:20.860Z,46.20
2018-12-30T02:11:20.854Z,46.11
2018-12-30T02:12:20.848Z,46.01
2018-12-30T02:13:20.842Z,47.25
2018-12-30T02:14:20.835Z,47.92
2018-12-30T02:15:20.828Z,47.92
2018-12-30T02:16:20.823Z,47.82
2018-12-30T02:17:20.818Z,49.15
2018-12-30T02:18:20.811Z,49.82
2018-12-30T02:19:20.803Z,50.48
2018-12-30T02:20:20.796Z,50.87
2018-12-30T02:21:20.792Z,52.01
2018-12-30T02:22:20.783Z,52.58
2018-12-30T02:23:20.779Z,53.63
2018-12-30T02:24:20.773Z,54.38
2018-12-30T02:25:20.766Z,54.67
2018-12-30T02:26:20.758Z,57.33
2018-12-30T02:27:20.753Z,57.81
2018-12-30T02:28:20.750Z,58.18
2018-12-30T02:29:20.741Z,58.28
2018-12-30T02:30:20.736Z,60.09
2018-12-30T02:31:20.731Z,61.42
2018-12-30T02:32:20.725Z,61.61
2018-12-30T02:33:20.768Z,61.23
2018-12-30T02:34:20.710Z,60.66
2018-12-30T02:35:20.704Z,61.13
2018-12-30T02:36:20.700Z,61.23
2018-12-30T02:37:20.693Z,62.75
2018-12-30T02:38:20.690Z,63.04
2018-12-30T02:39:20.683Z,61.99
2018-12-30T02:40:20.673Z,62.56
2018-12-30T02:41:20.667Z,62.75
2018-12-30T02:42:20.660Z,61.52
2018-12-30T02:43:20.657Z,62.37
2018-12-30T02:44:20.651Z,61.23
2018-12-30T02:45:20.643Z,60.28
2018-12-30T02:46:20.636Z,60.47
2018-12-30T02:47:20.629Z,60.57
2018-12-30T02:48:20.622Z,61.52
2018-12-30T02:49:20.616Z,60.66
2018-12-30T02:50:20.609Z,61.80
2018-12-30T02:51:20.605Z,61.71
2018-12-30T02:52:20.598Z,61.52
2018-12-30T02:53:20.593Z,61.61
2018-12-30T02:54:20.587Z,62.94
2018-12-30T02:55:20.582Z,61.71
2018-12-30T02:56:20.575Z,61.99
2018-12-30T02:57:20.568Z,62.65
2018-12-30T02:58:20.560Z,61.52
2018-12-30T02:59:20.554Z,62.37
2018-12-30T03:00:20.550Z,62.08
2018-12-30T03:01:20.543Z,61.80
2018-12-30T03:02:20.534Z,61.42
2018-12-30T03:03:20.533Z,62.18
2018-12-30T03:04:20.530Z,61.42
2018-12-30T03:05:20.523Z,61.52
2018-12-30T03:06:20.535Z,60.94
2018-12-30T03:07:20.506Z,61.32
2018-12-30T03:08:20.500Z,60.38
2018-12-30T03:09:20.493Z,60.57
2018-12-30T03:10:20.495Z,60.38
2018-12-30T03:11:20.480Z,59.71
2018-12-30T03:12:20.474Z,59.80
2018-12-30T03:13:20.469Z,59.61
2018-12-30T03:14:20.464Z,59.05
2018-12-30T03:15:20.455Z,58.37
2018-12-30T03:16:20.449Z,57.14
2018-12-30T03:17:20.443Z,56.29
2018-12-30T03:18:20.437Z,55.43
2018-12-30T03:19:20.430Z,55.24
2018-12-30T03:20:20.425Z,53.81
2018-12-30T03:21:20.420Z,52.86
2018-12-30T03:22:20.412Z,52.58
2018-12-30T03:23:20.404Z,51.43
2018-12-30T03:24:20.400Z,50.29
2018-12-30T03:25:20.392Z,49.63
2018-12-30T03:26:20.386Z,49.63
2018-12-30T03:27:20.383Z,49.25
2018-12-30T03:28:20.374Z,49.25
2018-12-30T03:29:20.369Z,48.96
2018-12-30T03:30:20.370Z,48.58
2018-12-30T03:31:20.356Z,48.39
2018-12-30T03:32:20.359Z,48.01
2018-12-30T03:33:20.347Z,47.92
2018-12-30T03:34:20.338Z,47.82
2018-12-30T03:35:20.333Z,46.97
2018-12-30T03:36:20.324Z,47.82
2018-12-30T03:37:20.320Z,48.01
2018-12-30T03:38:20.315Z,48.01
2018-12-30T03:39:20.306Z,47.73
2018-12-30T03:40:20.300Z,47.63
2018-12-30T03:41:20.298Z,47.92
2018-12-30T03:42:20.394Z,47.63
2018-12-30T03:43:20.282Z,49.25
2018-12-30T03:44:20.275Z,49.35
2018-12-30T03:45:20.268Z,49.15
2018-12-30T03:46:20.262Z,49.15
2018-12-30T03:47:20.256Z,48.96
2018-12-30T03:48:20.256Z,48.87
2018-12-30T03:49:20.244Z,48.11
2018-12-30T03:50:20.239Z,49.35
2018-12-30T03:51:20.233Z,49.15
2018-12-30T03:52:20.226Z,49.25
2018-12-30T03:53:20.219Z,48.39
2018-12-30T03:54:20.212Z,48.87
2018-12-30T03:55:20.207Z,48.39
2018-12-30T03:56:20.201Z,48.39
2018-12-30T03:57:20.195Z,47.92
2018-12-30T03:58:20.187Z,48.11
2018-12-30T03:59:20.182Z,47.92
2018-12-30T04:00:20.177Z,47.54
2018-12-30T04:01:20.171Z,47.63
2018-12-30T04:02:20.163Z,47.63
2018-12-30T04:03:20.158Z,47.92
2018-12-30T04:04:20.153Z,47.92
2018-12-30T04:05:20.146Z,47.92
2018-12-30T04:06:20.139Z,46.59
2018-12-30T04:07:20.134Z,46.59
2018-12-30T04:08:20.126Z,47.25
2018-12-30T04:09:20.121Z,46.68
2018-12-30T04:10:20.116Z,46.68
2018-12-30T04:11:20.109Z,46.78
2018-12-30T04:12:20.104Z,46.49
2018-12-30T04:13:20.097Z,46.78
2018-12-30T04:14:20.090Z,46.40
2018-12-30T04:15:20.086Z,45.92
2018-12-30T04:16:20.078Z,45.73
2018-12-30T04:17:20.073Z,45.73
2018-12-30T04:18:20.064Z,46.01
2018-12-30T04:19:20.058Z,45.45
2018-12-30T04:20:20.053Z,45.35
2018-12-30T04:21:20.047Z,45.35
2018-12-30T04:22:20.039Z,45.35
2018-12-30T04:23:20.035Z,45.07
2018-12-30T04:24:20.027Z,44.49
2018-12-30T04:25:20.023Z,44.59
2018-12-30T04:26:20.017Z,44.49
2018-12-30T04:27:20.009Z,44.49
2018-12-30T04:28:20.003Z,44.87
2018-12-30T04:29:19.998Z,45.16
2018-12-30T04:30:19.989Z,44.21
2018-12-30T04:31:19.985Z,44.02
2018-12-30T04:32:19.978Z,43.54
2018-12-30T04:33:19.974Z,43.07
2018-12-30T04:34:19.967Z,42.31
2018-12-30T04:35:19.960Z,41.74
2018-12-30T04:36:19.956Z,41.55
2018-12-30T04:37:19.947Z,41.46
2018-12-30T04:38:19.943Z,41.74
2018-12-30T04:39:19.938Z,41.46
2018-12-30T04:40:19.928Z,40.98
2018-12-30T04:41:19.925Z,41.74
2018-12-30T04:42:19.918Z,41.64
2018-12-30T04:43:19.913Z,41.07
2018-12-30T04:44:19.904Z,40.59
2018-12-30T04:45:19.898Z,40.12
2018-12-30T04:46:19.892Z,39.84
2018-12-30T04:47:19.885Z,39.55
2018-12-30T04:48:19.879Z,38.89
2018-12-30T04:49:19.874Z,38.03
2018-12-30T04:50:19.870Z,36.98
2018-12-30T04:51:19.859Z,36.70
2018-12-30T04:52:25.562Z,37.08
2018-12-30T04:53:19.850Z,36.41
2018-12-30T04:54:19.843Z,36.70
2018-12-30T04:55:19.836Z,36.22
2018-12-30T04:56:19.830Z,36.79
2018-12-30T04:57:19.822Z,37.18
2018-12-30T04:58:19.815Z,36.70
2018-12-30T04:59:19.810Z,36.41
2018-12-30T05:00:19.805Z,36.41
2018-12-30T05:01:19.798Z,36.22
2018-12-30T05:02:19.792Z,36.13
2018-12-30T05:03:19.797Z,35.75
2018-12-30T05:04:19.885Z,35.17
2018-12-30T05:05:19.774Z,34.89
2018-12-30T05:06:19.767Z,34.23
2018-12-30T05:07:19.761Z,34.11
2018-12-30T05:08:19.754Z,33.94
2018-12-30T05:09:19.750Z,34.13
2018-12-30T05:10:19.742Z,33.75
2018-12-30T05:11:19.744Z,33.47
2018-12-30T05:12:19.731Z,33.92
2018-12-30T05:13:19.727Z,33.45
2018-12-30T05:14:19.718Z,33.07
2018-12-30T05:15:19.712Z,32.42
2018-12-30T05:16:19.705Z,31.66
2018-12-30T05:17:19.702Z,31.36
2018-12-30T05:18:19.719Z,30.99
2018-12-30T05:19:19.687Z,31.09
2018-12-30T05:20:19.681Z,30.79
2018-12-30T05:21:19.675Z,30.79
2018-12-30T05:22:19.669Z,30.22
2018-12-30T05:23:19.662Z,30.14
2018-12-30T05:24:19.657Z,29.36
2018-12-30T05:25:19.650Z,28.60
2018-12-30T05:26:19.642Z,27.84
2018-12-30T05:27:19.640Z,27.94
2018-12-30T05:28:19.631Z,27.56
2018-12-30T05:29:19.626Z,26.79
2018-12-30T05:30:19.617Z,26.32
2018-12-30T05:31:19.612Z,25.46
2018-12-30T05:32:19.606Z,25.37
2018-12-30T05:33:19.599Z,25.18
2018-12-30T05:34:19.597Z,24.80
2018-12-30T05:35:19.587Z,24.52
2018-12-30T05:36:19.581Z,24.04
2018-12-30T05:37:19.585Z,24.33
2018-12-30T05:38:19.572Z,23.75
2018-12-30T05:39:19.561Z,23.00
2018-12-30T05:40:19.554Z,22.80
2018-12-30T05:41:19.550Z,23.00
2018-12-30T05:42:19.545Z,22.80
2018-12-30T05:43:19.537Z,22.42
2018-12-30T05:44:19.531Z,22.33
2018-12-30T05:45:19.524Z,22.24
2018-12-30T05:46:19.519Z,21.47
2018-12-30T05:47:19.518Z,21.00
2018-12-30T05:48:19.506Z,21.00
2018-12-30T05:49:19.498Z,21.19
2018-12-30T05:50:19.491Z,21.28
2018-12-30T05:51:19.485Z,20.90
2018-12-30T05:52:19.479Z,20.81
2018-12-30T05:53:19.472Z,20.72
2018-12-30T05:54:19.466Z,20.62
2018-12-30T05:55:19.461Z,19.76
2018-12-30T05:56:19.456Z,19.95
2018-12-30T05:57:19.448Z,19.86
2018-12-30T05:58:19.441Z,19.01
2018-12-30T05:59:19.435Z,17.86
2018-12-30T06:00:19.428Z,17.58
2018-12-30T06:01:19.427Z,17.01
2018-12-30T06:02:19.419Z,16.82
2018-12-30T06:03:19.414Z,15.77
2018-12-30T06:04:19.409Z,15.68
2018-12-30T06:05:19.398Z,15.77
2018-12-30T06:06:19.390Z,15.39
2018-12-30T06:07:19.384Z,14.92
2018-12-30T06:08:19.378Z,14.54
2018-12-30T06:09:19.373Z,14.15
2018-12-30T06:10:19.369Z,13.78
2018-12-30T06:11:19.359Z,13.68
2018-12-30T06:12:19.355Z,13.40
2018-12-30T06:13:19.347Z,13.21
2018-12-30T06:14:19.341Z,12.82
2018-12-30T06:15:19.334Z,12.07
2018-12-30T06:16:19.328Z,11.50
2018-12-30T06:17:19.324Z,11.30
2018-12-30T06:18:19.315Z,11.30
2018-12-30T06:19:19.309Z,11.11
2018-12-30T06:20:19.302Z,11.40
2018-12-30T06:21:19.297Z,11.21
2018-12-30T06:22:19.290Z,10.74
2018-12-30T06:23:19.283Z,11.02
2018-12-30T06:24:19.277Z,10.55
2018-12-30T06:25:19.298Z,10.64
2018-12-30T06:26:19.265Z,10.64
2018-12-30T06:27:19.257Z,10.45
2018-12-30T06:28:19.253Z,10.64
2018-12-30T06:29:19.245Z,10.45
2018-12-30T06:30:19.240Z,10.26
2018-12-30T06:31:19.231Z,9.88
2018-12-30T06:32:19.226Z,9.31
2018-12-30T06:33:19.220Z,9.03
2018-12-30T06:34:19.213Z,9.31
2018-12-30T06:35:19.208Z,8.74
2018-12-30T06:36:19.201Z,8.64
2018-12-30T06:37:19.194Z,8.84
2018-12-30T06:38:19.187Z,8.55
2018-12-30T06:39:19.180Z,8.55
2018-12-30T06:40:19.174Z,7.79
2018-12-30T06:41:19.168Z,7.31
2018-12-30T06:42:19.160Z,6.74
2018-12-30T06:43:19.159Z,6.56
2018-12-30T06:44:19.150Z,5.51
2018-12-30T06:45:19.144Z,5.13
2018-12-30T06:46:19.135Z,5.41
2018-12-30T06:47:19.130Z,5.32
2018-12-30T06:48:19.124Z,5.22
2018-12-30T06:49:19.117Z,5.13
2018-12-30T06:50:19.111Z,5.04
2018-12-30T06:51:19.105Z,4.46
2018-12-30T06:52:19.099Z,3.89
2018-12-30T06:53:19.093Z,3.42
2018-12-30T06:54:19.086Z,3.13
2018-12-30T06:55:19.081Z,2.66
2018-12-30T06:56:19.074Z,2.56
2018-12-30T06:57:19.066Z,1.71
2018-12-30T06:58:19.061Z,1.42
2018-12-30T06:59:19.057Z,1.42
2018-12-30T07:00:19.048Z,0.95
2018-12-30T07:01:19.053Z,0.66
2018-12-30T07:02:19.034Z,0.47
2018-12-30T07:03:19.029Z,0.19
2018-12-30T07:04:19.023Z,0.19
2018-12-30T07:05:19.016Z,0.19
2018-12-30T07:06:19.010Z,0.00
2018-12-30T07:07:19.004Z,0.00
2018-12-30T07:08:18.996Z,0.00
2018-12-30T07:09:18.990Z,0.00
2018-12-30T07:10:18.983Z,0.00
2018-12-30T07:11:18.978Z,0.00
2018-12-30T07:12:18.970Z,0.00
2018-12-30T07:13:18.964Z,0.00
2018-12-30T07:14:18.958Z,0.00
2018-12-30T07:15:18.954Z,0.00
2018-12-30T07:16:18.951Z,0.00
2018-12-30T07:17:18.940Z,0.00
2018-12-30T07:18:18.931Z,0.00
2018-12-30T07:19:18.927Z,0.00
2018-12-30T07:20:18.919Z,0.00
2018-12-30T07:21:18.913Z,0.00
2018-12-30T07:22:18.905Z,0.00
2018-12-30T07:23:18.901Z,0.00
2018-12-30T07:24:18.894Z,0.00
2018-12-30T07:25:18.950Z,0.00
2018-12-30T07:26:18.883Z,0.00
2018-12-30T07:27:18.874Z,0.00
2018-12-30T07:28:18.917Z,0.00
2018-12-30T07:29:18.863Z,0.00
2018-12-30T07:30:18.857Z,0.00
2018-12-30T07:31:18.850Z,0.00
2018-12-30T07:32:18.845Z,0.00
2018-12-30T07:33:18.922Z,0.00
2018-12-30T07:34:18.837Z,0.00
2018-12-30T07:35:18.825Z,0.00
2018-12-30T07:36:18.820Z,0.00
2018-12-30T07:37:18.812Z,0.00
2018-12-30T07:38:18.804Z,0.00
2018-12-30T07:39:18.799Z,0.00
2018-12-30T07:40:18.795Z,0.00
2018-12-30T07:41:18.787Z,0.00
2018-12-30T07:42:18.780Z,0.00
2018-12-30T07:43:18.774Z,0.00
2018-12-30T07:44:18.767Z,0.00
2018-12-30T07:45:18.761Z,0.00
2018-12-30T07:46:18.755Z,0.00
2018-12-30T07:47:18.749Z,0.00
2018-12-30T07:48:18.744Z,0.00
2018-12-30T07:49:18.735Z,0.00
2018-12-30T07:50:18.729Z,0.00
2018-12-30T07:51:18.723Z,0.00
2018-12-30T07:52:18.716Z,0.00
2018-12-30T07:53:18.710Z,0.00
2018-12-30T07:54:18.704Z,0.00
2018-12-30T07:55:18.696Z,0.00
2018-12-30T07:56:18.691Z,0.00
2018-12-30T07:57:18.685Z,0.00
2018-12-30T07:58:18.678Z,0.00
2018-12-30T07:59:18.673Z,0.00
2018-12-30T08:00:18.665Z,0.00
2018-12-30T08:01:18.659Z,0.00
2018-12-30T08:02:18.653Z,0.00
2018-12-30T08:03:18.647Z,0.00
2018-12-30T08:04:18.640Z,0.00
2018-12-30T08:05:18.635Z,0.00
2018-12-30T08:06:18.627Z,0.00
2018-12-30T08:07:18.621Z,0.00
2018-12-30T08:08:18.615Z,0.00
2018-12-30T08:09:18.608Z,0.00
2018-12-30T08:10:18.602Z,0.00
2018-12-30T08:11:18.596Z,0.00
2018-12-30T08:12:18.592Z,0.00
2018-12-30T08:13:18.584Z,0.00
2018-12-30T08:14:18.579Z,0.00
2018-12-30T08:15:18.571Z,0.00
2018-12-30T08:16:18.565Z,0.00
2018-12-30T08:17:18.560Z,0.00
2018-12-30T08:18:18.552Z,0.00
2018-12-30T08:19:18.548Z,0.00
2018-12-30T08:20:18.539Z,0.00
2018-12-30T08:21:18.534Z,0.00
2018-12-30T08:22:18.526Z,0.00
2018-12-30T08:23:21.518Z,0.00
2018-12-30T08:24:18.514Z,0.00
2018-12-30T08:25:18.508Z,0.00
2018-12-30T08:26:18.501Z,0.00
2018-12-30T08:27:18.496Z,0.00
2018-12-30T08:28:24.974Z,0.00
2018-12-30T08:29:18.483Z,0.00
2018-12-30T08:30:18.476Z,0.00
2018-12-30T08:31:18.472Z,0.00
2018-12-30T08:32:18.463Z,0.00
2018-12-30T08:33:18.459Z,0.00
2018-12-30T08:34:18.450Z,0.00
2018-12-30T08:35:18.445Z,0.00
2018-12-30T08:36:18.438Z,0.00
2018-12-30T08:37:18.432Z,0.00
2018-12-30T08:38:18.428Z,0.00
2018-12-30T08:39:18.419Z,0.00
2018-12-30T08:40:18.414Z,0.00
2018-12-30T08:41:18.409Z,0.00
2018-12-30T08:42:18.402Z,0.00
2018-12-30T08:43:18.395Z,0.00
2018-12-30T08:44:18.389Z,0.00
2018-12-30T08:45:18.392Z,0.00
2018-12-30T08:46:18.377Z,0.00
2018-12-30T08:47:18.372Z,0.00
2018-12-30T08:48:18.365Z,0.00
2018-12-30T08:49:18.359Z,0.00
2018-12-30T08:50:18.353Z,0.00
2018-12-30T08:51:18.347Z,0.00
2018-12-30T08:52:18.340Z,0.00
2018-12-30T08:53:18.339Z,0.00
2018-12-30T08:54:18.329Z,0.00
2018-12-30T08:55:18.321Z,0.00
2018-12-30T08:56:18.316Z,0.00
2018-12-30T08:57:18.309Z,0.00
2018-12-30T08:58:18.303Z,0.00
2018-12-30T08:59:18.300Z,0.00
2018-12-30T09:00:18.291Z,0.00
2018-12-30T09:01:18.285Z,0.00
2018-12-30T09:02:18.279Z,0.00
2018-12-30T09:03:18.273Z,0.00
2018-12-30T09:04:18.268Z,0.00
2018-12-30T09:05:18.262Z,0.00
2018-12-30T09:06:18.253Z,0.00
2018-12-30T09:07:18.249Z,0.00
2018-12-30T09:08:18.243Z,0.00
2018-12-30T09:09:18.238Z,0.00
2018-12-30T09:10:18.231Z,0.00
2018-12-30T09:11:18.230Z,0.00
2018-12-30T09:12:18.220Z,0.00
2018-12-30T09:13:18.216Z,0.00
2018-12-30T09:14:18.208Z,0.00
2018-12-30T09:15:18.206Z,0.00
2018-12-30T09:16:18.197Z,0.00
2018-12-30T09:17:18.403Z,0.00
2018-12-30T09:18:18.185Z,0.00
2018-12-30T09:19:18.178Z,0.00
2018-12-30T09:20:18.174Z,0.00
2018-12-30T09:21:18.176Z,0.00
2018-12-30T09:22:18.161Z,0.00
2018-12-30T09:23:19.253Z,0.00
2018-12-30T09:24:18.249Z,0.00
2018-12-30T09:25:18.145Z,0.00
2018-12-30T09:26:18.136Z,0.00
2018-12-30T09:27:18.130Z,0.00
2018-12-30T09:28:18.154Z,0.00
2018-12-30T09:29:18.120Z,0.00
2018-12-30T09:30:18.112Z,0.00
2018-12-30T09:31:18.108Z,0.00
2018-12-30T09:32:18.102Z,0.00
2018-12-30T09:33:18.101Z,0.00
2018-12-30T09:34:18.090Z,0.00
2018-12-30T09:35:18.085Z,0.00
2018-12-30T09:36:18.079Z,0.00
2018-12-30T09:37:18.075Z,0.00
2018-12-30T09:38:18.065Z,0.00
2018-12-30T09:39:18.061Z,0.00
2018-12-30T09:40:18.054Z,0.00
2018-12-30T09:41:18.049Z,0.00
2018-12-30T09:42:18.043Z,0.00
2018-12-30T09:43:18.037Z,0.00
2018-12-30T09:44:18.033Z,0.00
2018-12-30T09:45:18.026Z,0.00
2018-12-30T09:46:18.019Z,0.00
2018-12-30T09:47:18.013Z,0.00
2018-12-30T09:48:18.007Z,0.00
2018-12-30T09:49:18.003Z,0.00
2018-12-30T09:50:17.996Z,0.00
2018-12-30T09:51:17.993Z,0.00
2018-12-30T09:52:17.985Z,0.00
2018-12-30T09:53:17.979Z,0.00
2018-12-30T09:54:17.973Z,0.00
2018-12-30T09:55:17.977Z,0.00
2018-12-30T09:56:17.965Z,0.00
2018-12-30T09:57:17.955Z,0.00
2018-12-30T09:58:17.949Z,0.00
2018-12-30T09:59:17.943Z,0.00
2018-12-30T10:00:17.943Z,0.00
2018-12-30T10:01:17.932Z,0.00
2018-12-30T10:02:17.930Z,0.00
2018-12-30T10:03:17.920Z,0.00
2018-12-30T10:04:17.915Z,0.00
2018-12-30T10:05:17.913Z,0.00
2018-12-30T10:06:17.907Z,0.00
2018-12-30T10:07:17.897Z,0.00
2018-12-30T10:08:17.892Z,0.00
2018-12-30T10:09:17.887Z,0.00
2018-12-30T10:10:17.880Z,0.00
2018-12-30T10:11:17.876Z,0.00
2018-12-30T10:12:17.869Z,0.00
2018-12-30T10:13:17.863Z,0.00
2018-12-30T10:14:17.858Z,0.00
2018-12-30T10:15:17.852Z,0.00
2018-12-30T10:16:17.846Z,0.00
2018-12-30T10:17:17.842Z,0.00
2018-12-30T10:18:17.835Z,0.00
2018-12-30T10:19:17.830Z,0.00
2018-12-30T10:20:17.827Z,0.00
2018-12-30T10:21:17.816Z,0.00
2018-12-30T10:22:17.811Z,0.00
2018-12-30T10:23:17.804Z,0.00
2018-12-30T10:24:17.800Z,0.00
2018-12-30T10:25:17.804Z,0.00
2018-12-30T10:26:17.788Z,0.00
2018-12-30T10:27:17.781Z,0.00
2018-12-30T10:28:17.780Z,0.00
2018-12-30T10:29:17.772Z,0.00
2018-12-30T10:30:17.765Z,0.00
2018-12-30T10:31:17.759Z,0.00
2018-12-30T10:32:17.753Z,0.00
2018-12-30T10:33:17.749Z,0.00
2018-12-30T10:34:17.741Z,0.09
2018-12-30T10:35:17.737Z,0.00
2018-12-30T10:36:17.731Z,0.00
2018-12-30T10:37:17.724Z,0.85
2018-12-30T10:38:17.720Z,0.67
2018-12-30T10:39:17.713Z,0.28
2018-12-30T10:40:17.710Z,0.85
2018-12-30T10:41:17.703Z,1.42
2018-12-30T10:42:17.697Z,0.00
2018-12-30T10:43:17.690Z,0.67
2018-12-30T10:44:17.683Z,0.57
2018-12-30T10:45:17.758Z,1.14
2018-12-30T10:46:17.671Z,1.23
2018-12-30T10:47:17.666Z,2.66
2018-12-30T10:48:17.660Z,3.70
2018-12-30T10:49:17.655Z,3.04
2018-12-30T10:50:17.648Z,3.52
2018-12-30T10:51:17.643Z,3.90
2018-12-30T10:52:17.641Z,3.99
2018-12-30T10:53:17.635Z,3.80
2018-12-30T10:54:17.625Z,4.28
2018-12-30T10:55:17.621Z,5.13
2018-12-30T10:56:17.616Z,4.37
2018-12-30T10:57:17.610Z,5.42
2018-12-30T10:58:17.603Z,6.09
2018-12-30T10:59:17.598Z,5.32
2018-12-30T11:00:17.592Z,6.18
2018-12-30T11:01:17.591Z,6.27
2018-12-30T11:02:17.581Z,6.09
2018-12-30T11:03:17.574Z,7.42
2018-12-30T11:04:17.570Z,8.47
2018-12-30T11:05:17.563Z,8.27
2018-12-30T11:06:17.557Z,7.70
2018-12-30T11:07:17.552Z,8.94
2018-12-30T11:08:17.547Z,9.03
2018-12-30T11:09:17.543Z,9.32
2018-12-30T11:10:17.535Z,9.89
2018-12-30T11:11:17.530Z,10.17
2018-12-30T11:12:17.524Z,9.22
2018-12-30T11:13:17.518Z,10.17
2018-12-30T11:14:17.514Z,9.61
2018-12-30T11:15:17.511Z,9.89
2018-12-30T11:16:17.502Z,10.27
2018-12-30T11:17:17.496Z,11.03
2018-12-30T11:18:17.492Z,11.70
2018-12-30T11:19:17.486Z,11.89
2018-12-30T11:20:17.482Z,11.51
2018-12-30T11:21:17.474Z,11.32
2018-12-30T11:22:17.468Z,11.13
2018-12-30T11:23:17.512Z,9.99
2018-12-30T11:24:17.458Z,11.98
2018-12-30T11:25:17.452Z,11.89
2018-12-30T11:26:17.445Z,12.27
2018-12-30T11:27:17.507Z,13.12
2018-12-30T11:28:17.435Z,13.60
2018-12-30T11:29:17.430Z,12.37
2018-12-30T11:30:17.427Z,13.51
2018-12-30T11:31:17.417Z,13.51
2018-12-30T11:32:17.413Z,13.51
2018-12-30T11:33:17.407Z,15.50
2018-12-30T11:34:17.400Z,14.36
2018-12-30T11:35:17.444Z,14.46
2018-12-30T11:36:17.677Z,15.60
2018-12-30T11:37:17.382Z,14.07
2018-12-30T11:38:17.378Z,15.31
2018-12-30T11:39:17.371Z,15.79
2018-12-30T11:40:17.366Z,15.60
2018-12-30T11:41:17.363Z,15.31
2018-12-30T11:42:17.354Z,17.22
2018-12-30T11:43:17.349Z,17.69
2018-12-30T11:44:17.344Z,17.41
2018-12-30T11:45:17.341Z,16.74
2018-12-30T11:46:17.333Z,17.69
2018-12-30T11:47:17.328Z,18.26
2018-12-30T11:48:17.321Z,17.31
2018-12-30T11:49:17.317Z,18.26
2018-12-30T11:50:17.312Z,18.36
2018-12-30T11:51:17.304Z,18.74
2018-12-30T11:52:17.298Z,18.74
2018-12-30T11:53:17.293Z,17.31
2018-12-30T11:54:17.288Z,16.74
2018-12-30T11:55:17.283Z,17.02
2018-12-30T11:56:17.277Z,18.26
2018-12-30T11:57:17.272Z,16.83
2018-12-30T11:58:17.267Z,17.12
2018-12-30T11:59:17.260Z,16.27
2018-12-30T12:00:17.258Z,17.41
2018-12-30T12:01:17.249Z,16.17
2018-12-30T12:02:23.797Z,17.60
2018-12-30T12:03:17.239Z,16.36
2018-12-30T12:04:17.232Z,15.60
2018-12-30T12:05:17.227Z,16.08
2018-12-30T12:06:17.220Z,16.17
2018-12-30T12:07:17.217Z,16.64
2018-12-30T12:08:17.211Z,16.27
2018-12-30T12:09:17.206Z,16.93
2018-12-30T12:10:17.198Z,16.27
2018-12-30T12:11:17.194Z,15.60
2018-12-30T12:12:17.190Z,15.31
2018-12-30T12:13:17.182Z,13.41
2018-12-30T12:14:17.178Z,15.03
2018-12-30T12:15:17.172Z,15.22
2018-12-30T12:16:17.166Z,15.50
2018-12-30T12:17:17.160Z,16.17
2018-12-30T12:18:17.154Z,15.60
2018-12-30T12:19:17.151Z,14.93
2018-12-30T12:20:17.144Z,15.79
2018-12-30T12:21:17.139Z,15.60
2018-12-30T12:22:17.132Z,15.79
2018-12-30T12:23:17.127Z,16.27
2018-12-30T12:24:24.070Z,15.79
2018-12-30T12:25:17.117Z,15.41
2018-12-30T12:26:17.109Z,17.60
2018-12-30T12:27:17.105Z,17.31
2018-12-30T12:28:17.100Z,17.79
2018-12-30T12:29:17.095Z,15.50
2018-12-30T12:30:17.087Z,16.46
2018-12-30T12:31:17.083Z,16.17
2018-12-30T12:32:17.078Z,16.27
2018-12-30T12:33:17.071Z,16.17
2018-12-30T12:34:17.584Z,16.17
2018-12-30T12:35:17.109Z,16.46
2018-12-30T12:36:17.058Z,16.27
2018-12-30T12:37:17.049Z,16.46
2018-12-30T12:38:17.042Z,16.27
2018-12-30T12:39:17.037Z,16.36
2018-12-30T12:40:17.033Z,16.17
2018-12-30T12:41:17.027Z,15.31
2018-12-30T12:42:17.022Z,15.12
2018-12-30T12:43:17.016Z,15.60
2018-12-30T12:44:17.011Z,15.79
2018-12-30T12:45:17.005Z,16.17
2018-12-30T12:46:16.998Z,15.98
2018-12-30T12:47:16.995Z,16.36
2018-12-30T12:48:16.987Z,16.08
2018-12-30T12:49:16.982Z,16.36
2018-12-30T12:50:16.975Z,15.60
2018-12-30T12:51:16.973Z,15.60
2018-12-30T12:52:16.965Z,15.41
2018-12-30T12:53:16.960Z,15.22
2018-12-30T12:54:16.955Z,14.55
2018-12-30T12:55:16.948Z,14.36
2018-12-30T12:56:16.994Z,12.93
2018-12-30T12:57:16.938Z,12.37
2018-12-30T12:58:16.933Z,12.37
2018-12-30T12:59:16.928Z,12.27
2018-12-30T13:00:16.922Z,12.18
2018-12-30T13:01:16.917Z,13.03